sensor_id;sensor_type;location;lat;lon;timestamp;temperature;humidity
30999;DHT22;20549;50.042;8.968;2024-03-02T00:00:17;7.70;99.90
30999;DHT22;20549;50.042;8.968;2024-03-02T00:02:43;7.80;99.90
30999;DHT22;20549;50.042;8.968;2024-03-02T00:05:13;7.70;99.90
30999;DHT22;20549;50.042;8.968;2024-03-02T00:07:42;7.80;99.90
30999;DHT22;20549;50.042;8.968;2024-03-02T00:10:09;7.80;99.90
30999;DHT22;20549;50.042;8.968;2024-03-02T00:12:35;7.80;99.90
30999;DHT22;20549;50.042;8.968;2024-03-02T00:15:01;7.80;99.90
30999;DHT22;20549;50.042;8.968;2024-03-02T00:17:28;7.70;99.90
30999;DHT22;20549;50.042;8.968;2024-03-02T00:19:55;7.70;99.90
30999;DHT22;20549;50.042;8.968;2024-03-02T00:22:21;7.70;99.90
30999;DHT22;20549;50.042;8.968;2024-03-02T00:24:48;7.70;99.90
30999;DHT22;20549;50.042;8.968;2024-03-02T00:27:14;7.70;99.90
30999;DHT22;20549;50.042;8.968;2024-03-02T00:29:41;7.70;99.90
30999;DHT22;20549;50.042;8.968;2024-03-02T00:32:13;7.70;99.90
30999;DHT22;20549;50.042;8.968;2024-03-02T00:34:40;7.60;99.90
30999;DHT22;20549;50.042;8.968;2024-03-02T00:37:06;7.60;99.90
30999;DHT22;20549;50.042;8.968;2024-03-02T00:39:33;7.60;99.90
30999;DHT22;20549;50.042;8.968;2024-03-02T00:42:00;7.60;99.90
30999;DHT22;20549;50.042;8.968;2024-03-02T00:44:26;7.60;99.90
30999;DHT22;20549;50.042;8.968;2024-03-02T00:46:53;7.60;99.90
30999;DHT22;20549;50.042;8.968;2024-03-02T00:49:22;7.50;99.90
30999;DHT22;20549;50.042;8.968;2024-03-02T00:51:50;7.50;99.90
30999;DHT22;20549;50.042;8.968;2024-03-02T00:54:15;7.50;99.90
30999;DHT22;20549;50.042;8.968;2024-03-02T00:56:42;7.50;99.90
30999;DHT22;20549;50.042;8.968;2024-03-02T00:59:09;7.50;99.90
30999;DHT22;20549;50.042;8.968;2024-03-02T01:01:35;7.50;99.90
30999;DHT22;20549;50.042;8.968;2024-03-02T01:04:02;7.50;99.90
30999;DHT22;20549;50.042;8.968;2024-03-02T01:06:28;7.50;99.90
30999;DHT22;20549;50.042;8.968;2024-03-02T01:08:55;7.50;99.90
30999;DHT22;20549;50.042;8.968;2024-03-02T01:11:21;7.50;99.90
30999;DHT22;20549;50.042;8.968;2024-03-02T01:13:48;7.50;99.90
30999;DHT22;20549;50.042;8.968;2024-03-02T01:16:15;7.50;99.90
30999;DHT22;20549;50.042;8.968;2024-03-02T01:18:41;7.50;99.90
30999;DHT22;20549;50.042;8.968;2024-03-02T01:21:08;7.50;99.90
30999;DHT22;20549;50.042;8.968;2024-03-02T01:23:34;7.50;99.90
30999;DHT22;20549;50.042;8.968;2024-03-02T01:26:01;7.50;99.90
30999;DHT22;20549;50.042;8.968;2024-03-02T01:28:27;7.50;99.90
30999;DHT22;20549;50.042;8.968;2024-03-02T01:30:54;7.50;99.90
30999;DHT22;20549;50.042;8.968;2024-03-02T01:33:21;7.50;99.90
30999;DHT22;20549;50.042;8.968;2024-03-02T01:35:47;7.50;99.90
30999;DHT22;20549;50.042;8.968;2024-03-02T01:38:14;7.50;99.90
30999;DHT22;20549;50.042;8.968;2024-03-02T01:40:41;7.40;99.90
30999;DHT22;20549;50.042;8.968;2024-03-02T01:43:07;7.40;99.90
30999;DHT22;20549;50.042;8.968;2024-03-02T01:45:34;7.40;99.90
30999;DHT22;20549;50.042;8.968;2024-03-02T01:48:00;7.40;99.90
30999;DHT22;20549;50.042;8.968;2024-03-02T01:50:31;7.40;99.90
30999;DHT22;20549;50.042;8.968;2024-03-02T01:52:56;7.30;99.90
30999;DHT22;20549;50.042;8.968;2024-03-02T01:55:23;7.30;99.90
30999;DHT22;20549;50.042;8.968;2024-03-02T01:57:50;7.30;99.90
30999;DHT22;20549;50.042;8.968;2024-03-02T02:00:19;7.30;99.90
30999;DHT22;20549;50.042;8.968;2024-03-02T02:02:45;7.20;99.90
30999;DHT22;20549;50.042;8.968;2024-03-02T02:05:12;7.20;99.90
30999;DHT22;20549;50.042;8.968;2024-03-02T02:07:38;7.20;99.90
30999;DHT22;20549;50.042;8.968;2024-03-02T02:10:05;7.10;99.90
30999;DHT22;20549;50.042;8.968;2024-03-02T02:12:31;7.10;99.90
30999;DHT22;20549;50.042;8.968;2024-03-02T02:14:58;7.10;99.90
30999;DHT22;20549;50.042;8.968;2024-03-02T02:17:25;7.00;99.90
30999;DHT22;20549;50.042;8.968;2024-03-02T02:19:51;7.00;99.90
30999;DHT22;20549;50.042;8.968;2024-03-02T02:22:18;7.00;99.90
30999;DHT22;20549;50.042;8.968;2024-03-02T02:24:44;7.00;99.90
30999;DHT22;20549;50.042;8.968;2024-03-02T02:27:11;6.90;99.90
30999;DHT22;20549;50.042;8.968;2024-03-02T02:29:37;6.90;99.90
30999;DHT22;20549;50.042;8.968;2024-03-02T02:32:04;7.00;99.90
30999;DHT22;20549;50.042;8.968;2024-03-02T02:34:31;6.90;99.90
30999;DHT22;20549;50.042;8.968;2024-03-02T02:36:57;6.90;99.90
30999;DHT22;20549;50.042;8.968;2024-03-02T02:39:24;6.90;99.90
30999;DHT22;20549;50.042;8.968;2024-03-02T02:41:50;6.90;99.90
30999;DHT22;20549;50.042;8.968;2024-03-02T02:44:17;6.90;99.90
30999;DHT22;20549;50.042;8.968;2024-03-02T02:46:44;6.90;99.90
30999;DHT22;20549;50.042;8.968;2024-03-02T02:49:10;6.90;99.90
30999;DHT22;20549;50.042;8.968;2024-03-02T02:51:37;6.90;99.90
30999;DHT22;20549;50.042;8.968;2024-03-02T02:54:03;6.90;99.90
30999;DHT22;20549;50.042;8.968;2024-03-02T02:56:30;6.90;99.90
30999;DHT22;20549;50.042;8.968;2024-03-02T02:58:56;6.90;99.90
30999;DHT22;20549;50.042;8.968;2024-03-02T03:01:23;6.90;99.90
30999;DHT22;20549;50.042;8.968;2024-03-02T03:03:50;6.90;99.90
30999;DHT22;20549;50.042;8.968;2024-03-02T03:06:16;6.90;99.90
30999;DHT22;20549;50.042;8.968;2024-03-02T03:08:43;6.90;99.90
30999;DHT22;20549;50.042;8.968;2024-03-02T03:11:09;6.90;99.90
30999;DHT22;20549;50.042;8.968;2024-03-02T03:13:36;6.90;99.90
30999;DHT22;20549;50.042;8.968;2024-03-02T03:16:03;6.90;99.90
30999;DHT22;20549;50.042;8.968;2024-03-02T03:18:29;6.90;99.90
30999;DHT22;20549;50.042;8.968;2024-03-02T03:20:56;6.90;99.90
30999;DHT22;20549;50.042;8.968;2024-03-02T03:23:22;6.90;99.90
30999;DHT22;20549;50.042;8.968;2024-03-02T03:25:49;6.90;99.90
30999;DHT22;20549;50.042;8.968;2024-03-02T03:28:16;6.90;99.90
30999;DHT22;20549;50.042;8.968;2024-03-02T03:30:42;6.90;99.90
30999;DHT22;20549;50.042;8.968;2024-03-02T03:33:09;6.90;99.90
30999;DHT22;20549;50.042;8.968;2024-03-02T03:35:36;6.90;99.90
30999;DHT22;20549;50.042;8.968;2024-03-02T03:38:02;6.90;99.90
30999;DHT22;20549;50.042;8.968;2024-03-02T03:40:28;6.90;99.90
30999;DHT22;20549;50.042;8.968;2024-03-02T03:42:55;6.80;99.90
30999;DHT22;20549;50.042;8.968;2024-03-02T03:45:22;6.80;99.90
30999;DHT22;20549;50.042;8.968;2024-03-02T03:47:48;6.80;99.90
30999;DHT22;20549;50.042;8.968;2024-03-02T03:50:15;6.80;99.90
30999;DHT22;20549;50.042;8.968;2024-03-02T03:52:41;6.80;99.90
30999;DHT22;20549;50.042;8.968;2024-03-02T03:55:08;6.80;99.90
30999;DHT22;20549;50.042;8.968;2024-03-02T03:57:35;6.90;99.90
30999;DHT22;20549;50.042;8.968;2024-03-02T04:00:01;6.90;99.90
30999;DHT22;20549;50.042;8.968;2024-03-02T04:02:28;6.90;99.90
30999;DHT22;20549;50.042;8.968;2024-03-02T04:04:54;6.90;99.90
30999;DHT22;20549;50.042;8.968;2024-03-02T04:07:21;6.90;99.90
30999;DHT22;20549;50.042;8.968;2024-03-02T04:09:48;7.00;99.90
30999;DHT22;20549;50.042;8.968;2024-03-02T04:12:14;7.00;99.90
30999;DHT22;20549;50.042;8.968;2024-03-02T04:14:41;7.00;99.90
30999;DHT22;20549;50.042;8.968;2024-03-02T04:17:07;7.00;99.90
30999;DHT22;20549;50.042;8.968;2024-03-02T04:19:34;7.00;99.90
30999;DHT22;20549;50.042;8.968;2024-03-02T04:22:00;7.00;99.90
30999;DHT22;20549;50.042;8.968;2024-03-02T04:24:27;7.00;99.90
30999;DHT22;20549;50.042;8.968;2024-03-02T04:26:54;7.10;99.90
30999;DHT22;20549;50.042;8.968;2024-03-02T04:29:20;7.10;99.90
30999;DHT22;20549;50.042;8.968;2024-03-02T04:31:47;7.10;99.90
30999;DHT22;20549;50.042;8.968;2024-03-02T04:34:13;7.10;99.90
30999;DHT22;20549;50.042;8.968;2024-03-02T04:36:40;7.10;99.90
30999;DHT22;20549;50.042;8.968;2024-03-02T04:39:07;7.10;99.90
30999;DHT22;20549;50.042;8.968;2024-03-02T04:41:33;7.10;99.90
30999;DHT22;20549;50.042;8.968;2024-03-02T04:44:00;7.10;99.90
30999;DHT22;20549;50.042;8.968;2024-03-02T04:46:26;7.10;99.90
30999;DHT22;20549;50.042;8.968;2024-03-02T04:48:53;7.10;99.90
30999;DHT22;20549;50.042;8.968;2024-03-02T04:51:20;7.20;99.90
30999;DHT22;20549;50.042;8.968;2024-03-02T04:53:46;7.20;99.90
30999;DHT22;20549;50.042;8.968;2024-03-02T04:56:13;7.20;99.90
30999;DHT22;20549;50.042;8.968;2024-03-02T04:58:48;7.20;99.90
30999;DHT22;20549;50.042;8.968;2024-03-02T05:01:15;7.20;99.90
30999;DHT22;20549;50.042;8.968;2024-03-02T05:03:42;7.20;99.90
30999;DHT22;20549;50.042;8.968;2024-03-02T05:06:08;7.20;99.90
30999;DHT22;20549;50.042;8.968;2024-03-02T05:08:35;7.20;99.90
30999;DHT22;20549;50.042;8.968;2024-03-02T05:11:01;7.20;99.90
30999;DHT22;20549;50.042;8.968;2024-03-02T05:13:28;7.20;99.90
30999;DHT22;20549;50.042;8.968;2024-03-02T05:15:56;7.20;99.90
30999;DHT22;20549;50.042;8.968;2024-03-02T05:18:21;7.20;99.90
30999;DHT22;20549;50.042;8.968;2024-03-02T05:20:48;7.20;99.90
30999;DHT22;20549;50.042;8.968;2024-03-02T05:23:14;7.10;99.90
30999;DHT22;20549;50.042;8.968;2024-03-02T05:25:41;7.10;99.90
30999;DHT22;20549;50.042;8.968;2024-03-02T05:28:07;7.10;99.90
30999;DHT22;20549;50.042;8.968;2024-03-02T05:30:34;7.10;99.90
30999;DHT22;20549;50.042;8.968;2024-03-02T05:33:01;7.10;99.90
30999;DHT22;20549;50.042;8.968;2024-03-02T05:35:27;7.10;99.90
30999;DHT22;20549;50.042;8.968;2024-03-02T05:37:54;7.00;99.90
30999;DHT22;20549;50.042;8.968;2024-03-02T05:40:20;7.00;99.90
30999;DHT22;20549;50.042;8.968;2024-03-02T05:42:47;7.00;99.90
30999;DHT22;20549;50.042;8.968;2024-03-02T05:45:14;7.00;99.90
30999;DHT22;20549;50.042;8.968;2024-03-02T05:47:40;7.00;99.90
30999;DHT22;20549;50.042;8.968;2024-03-02T05:50:07;7.00;99.90
30999;DHT22;20549;50.042;8.968;2024-03-02T05:52:33;7.00;99.90
30999;DHT22;20549;50.042;8.968;2024-03-02T05:55:00;7.00;99.90
30999;DHT22;20549;50.042;8.968;2024-03-02T05:57:26;7.00;99.90
30999;DHT22;20549;50.042;8.968;2024-03-02T06:00:11;7.00;99.90
30999;DHT22;20549;50.042;8.968;2024-03-02T06:02:40;7.00;99.90
30999;DHT22;20549;50.042;8.968;2024-03-02T06:05:07;7.00;99.90
30999;DHT22;20549;50.042;8.968;2024-03-02T06:07:34;6.90;99.90
30999;DHT22;20549;50.042;8.968;2024-03-02T06:10:00;6.90;99.90
30999;DHT22;20549;50.042;8.968;2024-03-02T06:12:27;7.00;99.90
30999;DHT22;20549;50.042;8.968;2024-03-02T06:14:53;7.00;99.90
30999;DHT22;20549;50.042;8.968;2024-03-02T06:17:20;7.00;99.90
30999;DHT22;20549;50.042;8.968;2024-03-02T06:19:47;7.00;99.90
30999;DHT22;20549;50.042;8.968;2024-03-02T06:22:13;7.10;99.90
30999;DHT22;20549;50.042;8.968;2024-03-02T06:24:40;7.10;99.90
30999;DHT22;20549;50.042;8.968;2024-03-02T06:27:06;7.10;99.90
30999;DHT22;20549;50.042;8.968;2024-03-02T06:29:33;7.20;99.90
30999;DHT22;20549;50.042;8.968;2024-03-02T06:32:00;7.20;99.90
30999;DHT22;20549;50.042;8.968;2024-03-02T06:34:26;7.30;99.90
30999;DHT22;20549;50.042;8.968;2024-03-02T06:36:53;7.30;99.90
30999;DHT22;20549;50.042;8.968;2024-03-02T06:39:19;7.40;99.90
30999;DHT22;20549;50.042;8.968;2024-03-02T06:41:46;7.50;99.90
30999;DHT22;20549;50.042;8.968;2024-03-02T06:44:13;7.50;99.90
30999;DHT22;20549;50.042;8.968;2024-03-02T06:46:39;7.60;99.90
30999;DHT22;20549;50.042;8.968;2024-03-02T06:49:06;7.70;99.90
30999;DHT22;20549;50.042;8.968;2024-03-02T06:51:33;7.80;99.90
30999;DHT22;20549;50.042;8.968;2024-03-02T06:53:59;7.90;99.90
30999;DHT22;20549;50.042;8.968;2024-03-02T06:56:25;8.00;99.90
30999;DHT22;20549;50.042;8.968;2024-03-02T06:58:52;8.10;99.90
30999;DHT22;20549;50.042;8.968;2024-03-02T07:01:19;8.20;99.90
30999;DHT22;20549;50.042;8.968;2024-03-02T07:03:45;8.30;99.90
30999;DHT22;20549;50.042;8.968;2024-03-02T07:06:12;8.40;99.90
30999;DHT22;20549;50.042;8.968;2024-03-02T07:08:38;8.50;99.90
30999;DHT22;20549;50.042;8.968;2024-03-02T07:11:05;8.60;99.90
30999;DHT22;20549;50.042;8.968;2024-03-02T07:13:32;8.70;99.90
30999;DHT22;20549;50.042;8.968;2024-03-02T07:15:58;8.80;99.90
30999;DHT22;20549;50.042;8.968;2024-03-02T07:18:36;8.80;99.90
30999;DHT22;20549;50.042;8.968;2024-03-02T07:21:03;8.90;99.90
30999;DHT22;20549;50.042;8.968;2024-03-02T07:23:30;9.00;99.90
30999;DHT22;20549;50.042;8.968;2024-03-02T07:25:56;9.10;99.90
30999;DHT22;20549;50.042;8.968;2024-03-02T07:28:23;9.10;99.90
30999;DHT22;20549;50.042;8.968;2024-03-02T07:31:02;9.30;99.90
30999;DHT22;20549;50.042;8.968;2024-03-02T07:33:28;9.40;99.90
30999;DHT22;20549;50.042;8.968;2024-03-02T07:35:54;9.40;99.90
30999;DHT22;20549;50.042;8.968;2024-03-02T07:38:23;9.50;99.90
30999;DHT22;20549;50.042;8.968;2024-03-02T07:40:50;9.70;99.90
30999;DHT22;20549;50.042;8.968;2024-03-02T07:43:17;9.80;99.90
30999;DHT22;20549;50.042;8.968;2024-03-02T07:45:43;9.90;99.90
30999;DHT22;20549;50.042;8.968;2024-03-02T07:48:10;10.10;99.90
30999;DHT22;20549;50.042;8.968;2024-03-02T07:50:36;10.20;99.90
30999;DHT22;20549;50.042;8.968;2024-03-02T07:53:03;10.30;99.90
30999;DHT22;20549;50.042;8.968;2024-03-02T07:55:30;10.40;99.90
30999;DHT22;20549;50.042;8.968;2024-03-02T07:58:00;10.60;99.90
30999;DHT22;20549;50.042;8.968;2024-03-02T08:00:26;10.60;99.90
30999;DHT22;20549;50.042;8.968;2024-03-02T08:02:52;10.80;99.90
30999;DHT22;20549;50.042;8.968;2024-03-02T08:05:19;10.90;99.90
30999;DHT22;20549;50.042;8.968;2024-03-02T08:07:46;11.00;99.90
30999;DHT22;20549;50.042;8.968;2024-03-02T08:10:12;11.10;99.90
30999;DHT22;20549;50.042;8.968;2024-03-02T08:12:39;11.20;99.90
30999;DHT22;20549;50.042;8.968;2024-03-02T08:15:05;11.30;99.90
30999;DHT22;20549;50.042;8.968;2024-03-02T08:17:32;11.50;99.90
30999;DHT22;20549;50.042;8.968;2024-03-02T08:19:58;11.70;99.90
30999;DHT22;20549;50.042;8.968;2024-03-02T08:22:25;12.10;99.90
30999;DHT22;20549;50.042;8.968;2024-03-02T08:24:52;12.70;99.90
30999;DHT22;20549;50.042;8.968;2024-03-02T08:27:18;13.30;99.90
30999;DHT22;20549;50.042;8.968;2024-03-02T08:29:45;14.00;99.90
30999;DHT22;20549;50.042;8.968;2024-03-02T08:32:11;14.60;99.90
30999;DHT22;20549;50.042;8.968;2024-03-02T08:34:38;15.20;99.90
30999;DHT22;20549;50.042;8.968;2024-03-02T08:37:05;15.70;99.90
30999;DHT22;20549;50.042;8.968;2024-03-02T08:39:31;16.00;98.10
30999;DHT22;20549;50.042;8.968;2024-03-02T08:41:58;16.30;96.30
30999;DHT22;20549;50.042;8.968;2024-03-02T08:44:24;16.50;95.10
30999;DHT22;20549;50.042;8.968;2024-03-02T08:46:51;16.60;94.60
30999;DHT22;20549;50.042;8.968;2024-03-02T08:49:18;16.80;94.60
30999;DHT22;20549;50.042;8.968;2024-03-02T08:51:44;17.10;95.60
30999;DHT22;20549;50.042;8.968;2024-03-02T08:54:11;17.50;96.80
30999;DHT22;20549;50.042;8.968;2024-03-02T08:56:37;18.00;98.00
30999;DHT22;20549;50.042;8.968;2024-03-02T08:59:04;18.50;98.20
30999;DHT22;20549;50.042;8.968;2024-03-02T09:01:30;19.10;97.20
30999;DHT22;20549;50.042;8.968;2024-03-02T09:03:57;19.60;94.80
30999;DHT22;20549;50.042;8.968;2024-03-02T09:06:24;20.10;92.80
30999;DHT22;20549;50.042;8.968;2024-03-02T09:08:50;20.60;90.70
30999;DHT22;20549;50.042;8.968;2024-03-02T09:11:17;20.80;86.20
30999;DHT22;20549;50.042;8.968;2024-03-02T09:13:43;21.00;81.80
30999;DHT22;20549;50.042;8.968;2024-03-02T09:16:10;21.00;78.50
30999;DHT22;20549;50.042;8.968;2024-03-02T09:18:37;20.80;76.00
30999;DHT22;20549;50.042;8.968;2024-03-02T09:21:03;20.50;74.80
30999;DHT22;20549;50.042;8.968;2024-03-02T09:23:30;20.30;74.40
30999;DHT22;20549;50.042;8.968;2024-03-02T09:25:56;20.00;74.00
30999;DHT22;20549;50.042;8.968;2024-03-02T09:28:23;19.70;73.80
30999;DHT22;20549;50.042;8.968;2024-03-02T09:30:50;19.50;73.80
30999;DHT22;20549;50.042;8.968;2024-03-02T09:33:16;19.30;74.10
30999;DHT22;20549;50.042;8.968;2024-03-02T09:35:43;19.00;74.30
30999;DHT22;20549;50.042;8.968;2024-03-02T09:38:09;18.90;74.80
30999;DHT22;20549;50.042;8.968;2024-03-02T09:40:36;18.80;75.20
30999;DHT22;20549;50.042;8.968;2024-03-02T09:43:02;18.60;75.60
30999;DHT22;20549;50.042;8.968;2024-03-02T09:45:29;18.60;75.90
30999;DHT22;20549;50.042;8.968;2024-03-02T09:47:56;18.60;76.20
30999;DHT22;20549;50.042;8.968;2024-03-02T09:50:22;18.60;76.70
30999;DHT22;20549;50.042;8.968;2024-03-02T09:52:49;18.70;77.50
30999;DHT22;20549;50.042;8.968;2024-03-02T09:55:15;18.90;78.00
30999;DHT22;20549;50.042;8.968;2024-03-02T09:57:42;19.00;77.80
30999;DHT22;20549;50.042;8.968;2024-03-02T10:00:09;19.20;77.30
30999;DHT22;20549;50.042;8.968;2024-03-02T10:02:35;19.30;76.70
30999;DHT22;20549;50.042;8.968;2024-03-02T10:05:02;19.40;76.30
30999;DHT22;20549;50.042;8.968;2024-03-02T10:07:28;19.60;76.30
30999;DHT22;20549;50.042;8.968;2024-03-02T10:09:55;19.70;75.90
30999;DHT22;20549;50.042;8.968;2024-03-02T10:12:22;19.90;75.80
30999;DHT22;20549;50.042;8.968;2024-03-02T10:14:48;20.00;75.50
30999;DHT22;20549;50.042;8.968;2024-03-02T10:17:17;20.20;74.40
30999;DHT22;20549;50.042;8.968;2024-03-02T10:19:41;20.30;73.00
30999;DHT22;20549;50.042;8.968;2024-03-02T10:22:08;20.40;71.70
30999;DHT22;20549;50.042;8.968;2024-03-02T10:24:41;20.40;70.80
30999;DHT22;20549;50.042;8.968;2024-03-02T10:27:16;20.40;70.30
30999;DHT22;20549;50.042;8.968;2024-03-02T10:29:42;20.40;69.90
30999;DHT22;20549;50.042;8.968;2024-03-02T10:32:09;20.30;69.40
30999;DHT22;20549;50.042;8.968;2024-03-02T10:34:35;20.20;69.00
30999;DHT22;20549;50.042;8.968;2024-03-02T10:37:02;20.10;68.50
30999;DHT22;20549;50.042;8.968;2024-03-02T10:39:28;20.00;68.20
30999;DHT22;20549;50.042;8.968;2024-03-02T10:41:55;19.90;67.70
30999;DHT22;20549;50.042;8.968;2024-03-02T10:44:22;19.80;67.50
30999;DHT22;20549;50.042;8.968;2024-03-02T10:46:49;19.70;67.40
30999;DHT22;20549;50.042;8.968;2024-03-02T10:49:15;19.60;67.30
30999;DHT22;20549;50.042;8.968;2024-03-02T10:51:41;19.40;67.10
30999;DHT22;20549;50.042;8.968;2024-03-02T10:54:08;19.30;66.90
30999;DHT22;20549;50.042;8.968;2024-03-02T10:56:41;19.20;67.60
30999;DHT22;20549;50.042;8.968;2024-03-02T10:59:34;19.00;66.70
30999;DHT22;20549;50.042;8.968;2024-03-02T11:02:01;18.90;66.70
30999;DHT22;20549;50.042;8.968;2024-03-02T11:04:28;18.70;66.90
30999;DHT22;20549;50.042;8.968;2024-03-02T11:07:00;18.70;67.00
30999;DHT22;20549;50.042;8.968;2024-03-02T11:09:24;18.50;67.00
30999;DHT22;20549;50.042;8.968;2024-03-02T11:11:54;18.40;67.10
30999;DHT22;20549;50.042;8.968;2024-03-02T11:14:18;18.30;67.10
30999;DHT22;20549;50.042;8.968;2024-03-02T11:16:45;18.30;66.90
30999;DHT22;20549;50.042;8.968;2024-03-02T11:19:12;18.10;66.70
30999;DHT22;20549;50.042;8.968;2024-03-02T11:21:38;18.00;66.60
30999;DHT22;20549;50.042;8.968;2024-03-02T11:26:50;17.80;67.00
30999;DHT22;20549;50.042;8.968;2024-03-02T11:32:13;17.70;67.70
30999;DHT22;20549;50.042;8.968;2024-03-02T11:34:39;17.60;67.70
30999;DHT22;20549;50.042;8.968;2024-03-02T11:37:05;17.60;67.20
30999;DHT22;20549;50.042;8.968;2024-03-02T11:39:32;17.60;67.20
30999;DHT22;20549;50.042;8.968;2024-03-02T11:41:58;17.50;67.00
30999;DHT22;20549;50.042;8.968;2024-03-02T11:44:28;17.50;67.10
30999;DHT22;20549;50.042;8.968;2024-03-02T11:47:01;17.50;67.10
30999;DHT22;20549;50.042;8.968;2024-03-02T11:49:46;17.40;66.70
30999;DHT22;20549;50.042;8.968;2024-03-02T11:52:13;17.40;66.90
30999;DHT22;20549;50.042;8.968;2024-03-02T11:54:40;17.40;67.10
30999;DHT22;20549;50.042;8.968;2024-03-02T11:57:06;17.40;66.90
30999;DHT22;20549;50.042;8.968;2024-03-02T11:59:32;17.30;66.90
30999;DHT22;20549;50.042;8.968;2024-03-02T12:01:59;17.30;67.00
30999;DHT22;20549;50.042;8.968;2024-03-02T12:04:26;17.30;67.00
30999;DHT22;20549;50.042;8.968;2024-03-02T12:06:56;17.30;66.90
30999;DHT22;20549;50.042;8.968;2024-03-02T12:09:22;17.30;66.60
30999;DHT22;20549;50.042;8.968;2024-03-02T12:11:49;17.30;66.60
30999;DHT22;20549;50.042;8.968;2024-03-02T12:14:15;17.30;66.60
30999;DHT22;20549;50.042;8.968;2024-03-02T12:16:45;17.30;66.60
30999;DHT22;20549;50.042;8.968;2024-03-02T12:19:11;17.30;66.40
30999;DHT22;20549;50.042;8.968;2024-03-02T12:21:38;17.30;66.30
30999;DHT22;20549;50.042;8.968;2024-03-02T12:24:04;17.30;66.20
30999;DHT22;20549;50.042;8.968;2024-03-02T12:26:31;17.30;66.40
30999;DHT22;20549;50.042;8.968;2024-03-02T12:28:57;17.30;66.50
30999;DHT22;20549;50.042;8.968;2024-03-02T12:31:24;17.30;66.40
30999;DHT22;20549;50.042;8.968;2024-03-02T12:33:51;17.40;66.30
30999;DHT22;20549;50.042;8.968;2024-03-02T12:36:17;17.40;66.20
30999;DHT22;20549;50.042;8.968;2024-03-02T12:38:44;17.40;66.10
30999;DHT22;20549;50.042;8.968;2024-03-02T12:41:10;17.40;66.00
30999;DHT22;20549;50.042;8.968;2024-03-02T12:43:38;17.40;65.70
30999;DHT22;20549;50.042;8.968;2024-03-02T12:46:04;17.40;65.40
30999;DHT22;20549;50.042;8.968;2024-03-02T12:48:30;17.50;65.20
30999;DHT22;20549;50.042;8.968;2024-03-02T12:50:57;17.40;64.80
30999;DHT22;20549;50.042;8.968;2024-03-02T12:53:23;17.40;64.70
30999;DHT22;20549;50.042;8.968;2024-03-02T12:55:50;17.40;64.70
30999;DHT22;20549;50.042;8.968;2024-03-02T12:58:20;17.40;64.90
30999;DHT22;20549;50.042;8.968;2024-03-02T13:00:43;17.40;64.90
30999;DHT22;20549;50.042;8.968;2024-03-02T13:03:11;17.50;65.00
30999;DHT22;20549;50.042;8.968;2024-03-02T13:05:36;17.50;64.70
30999;DHT22;20549;50.042;8.968;2024-03-02T13:08:03;17.50;65.20
30999;DHT22;20549;50.042;8.968;2024-03-02T13:10:30;17.50;64.70
30999;DHT22;20549;50.042;8.968;2024-03-02T13:12:56;17.60;64.70
30999;DHT22;20549;50.042;8.968;2024-03-02T13:15:23;17.60;64.70
30999;DHT22;20549;50.042;8.968;2024-03-02T13:17:49;17.60;64.60
30999;DHT22;20549;50.042;8.968;2024-03-02T13:20:16;17.70;64.60
30999;DHT22;20549;50.042;8.968;2024-03-02T13:22:42;17.70;64.40
30999;DHT22;20549;50.042;8.968;2024-03-02T13:25:09;17.70;64.20
30999;DHT22;20549;50.042;8.968;2024-03-02T13:27:36;17.80;64.20
30999;DHT22;20549;50.042;8.968;2024-03-02T13:30:02;17.80;64.00
30999;DHT22;20549;50.042;8.968;2024-03-02T13:32:29;17.80;63.90
30999;DHT22;20549;50.042;8.968;2024-03-02T13:34:55;17.90;64.00
30999;DHT22;20549;50.042;8.968;2024-03-02T13:37:22;17.90;63.80
30999;DHT22;20549;50.042;8.968;2024-03-02T13:39:49;17.90;63.40
30999;DHT22;20549;50.042;8.968;2024-03-02T13:42:15;17.90;63.40
30999;DHT22;20549;50.042;8.968;2024-03-02T13:44:45;17.90;63.40
30999;DHT22;20549;50.042;8.968;2024-03-02T13:47:14;17.90;63.50
30999;DHT22;20549;50.042;8.968;2024-03-02T13:49:40;17.90;63.50
30999;DHT22;20549;50.042;8.968;2024-03-02T13:52:07;17.90;63.50
30999;DHT22;20549;50.042;8.968;2024-03-02T13:54:39;17.80;63.30
30999;DHT22;20549;50.042;8.968;2024-03-02T13:57:06;17.90;63.20
30999;DHT22;20549;50.042;8.968;2024-03-02T13:59:32;17.90;63.10
30999;DHT22;20549;50.042;8.968;2024-03-02T14:01:59;17.90;62.90
30999;DHT22;20549;50.042;8.968;2024-03-02T14:04:25;17.90;62.80
30999;DHT22;20549;50.042;8.968;2024-03-02T14:06:52;17.90;62.70
30999;DHT22;20549;50.042;8.968;2024-03-02T14:09:18;18.00;62.50
30999;DHT22;20549;50.042;8.968;2024-03-02T14:11:45;18.00;62.30
30999;DHT22;20549;50.042;8.968;2024-03-02T14:14:12;18.00;62.30
30999;DHT22;20549;50.042;8.968;2024-03-02T14:16:38;18.00;62.30
30999;DHT22;20549;50.042;8.968;2024-03-02T14:19:05;18.00;62.10
30999;DHT22;20549;50.042;8.968;2024-03-02T14:21:31;18.00;60.90
30999;DHT22;20549;50.042;8.968;2024-03-02T14:23:58;18.00;62.00
30999;DHT22;20549;50.042;8.968;2024-03-02T14:26:25;18.00;62.00
30999;DHT22;20549;50.042;8.968;2024-03-02T14:28:51;18.00;61.80
30999;DHT22;20549;50.042;8.968;2024-03-02T14:31:18;18.00;61.80
30999;DHT22;20549;50.042;8.968;2024-03-02T14:33:44;18.00;61.70
30999;DHT22;20549;50.042;8.968;2024-03-02T14:36:11;18.00;61.60
30999;DHT22;20549;50.042;8.968;2024-03-02T14:38:38;18.00;61.70
30999;DHT22;20549;50.042;8.968;2024-03-02T14:41:04;18.00;61.60
30999;DHT22;20549;50.042;8.968;2024-03-02T14:43:31;18.00;61.70
30999;DHT22;20549;50.042;8.968;2024-03-02T14:45:57;18.00;61.50
30999;DHT22;20549;50.042;8.968;2024-03-02T14:48:24;18.00;61.40
30999;DHT22;20549;50.042;8.968;2024-03-02T14:50:51;17.90;61.20
30999;DHT22;20549;50.042;8.968;2024-03-02T14:53:17;17.90;61.20
30999;DHT22;20549;50.042;8.968;2024-03-02T14:55:44;17.80;60.90
30999;DHT22;20549;50.042;8.968;2024-03-02T14:58:10;17.80;60.70
30999;DHT22;20549;50.042;8.968;2024-03-02T15:00:37;17.80;60.70
30999;DHT22;20549;50.042;8.968;2024-03-02T15:03:04;17.70;60.60
30999;DHT22;20549;50.042;8.968;2024-03-02T15:05:30;17.70;60.70
30999;DHT22;20549;50.042;8.968;2024-03-02T15:07:57;17.70;60.60
30999;DHT22;20549;50.042;8.968;2024-03-02T15:10:23;17.70;60.70
30999;DHT22;20549;50.042;8.968;2024-03-02T15:12:50;17.70;60.70
30999;DHT22;20549;50.042;8.968;2024-03-02T15:15:16;17.60;60.50
30999;DHT22;20549;50.042;8.968;2024-03-02T15:17:43;17.60;60.60
30999;DHT22;20549;50.042;8.968;2024-03-02T15:20:10;17.60;60.60
30999;DHT22;20549;50.042;8.968;2024-03-02T15:22:36;17.60;60.30
30999;DHT22;20549;50.042;8.968;2024-03-02T15:25:03;17.60;60.40
30999;DHT22;20549;50.042;8.968;2024-03-02T15:27:29;17.50;60.40
30999;DHT22;20549;50.042;8.968;2024-03-02T15:29:56;17.50;60.50
30999;DHT22;20549;50.042;8.968;2024-03-02T15:32:23;17.50;60.50
30999;DHT22;20549;50.042;8.968;2024-03-02T15:34:49;17.40;60.50
30999;DHT22;20549;50.042;8.968;2024-03-02T15:37:16;17.40;60.50
30999;DHT22;20549;50.042;8.968;2024-03-02T15:39:42;17.30;60.50